Accueil
METAR-TAF:

METAR-TAF

Aéroports :

Oslo, Norvège

Aéroport d'Oslo-Gardermoen

latitude: 60-12N, longitude: 011-05E, altitude: 208 m

Observation

Le bulletin a été fait il y a 17 minutes, à 12:50 UTC
Vent 6 kt de direction variable
Température 18°C
Humidité 42%
Pression 1019 hPa
Visibilité 10 km ou plus
pas de nuages en-dessous de 1500 mètres et pas de cumulonimbus.

METAR: ENGM 261250Z VRB06KT CAVOK 18/05 Q1019 NOSIG

Heure: 15:07 (13:07 UTC)

Prévision

Prévision valable du 26 à 06 UTC au 27 à 06 UTC
Vent 5 kt de ouest/sud-ouest
Visibilité 10 km ou plus
pas de nuages en-dessous de 1500 mètres et pas de cumulonimbus.
Temporairement
du 26 à 12 UTC au 26 à 19 UTC
Vent 10 kt de nord/nord-ouest avec des rafales jusqu'à 20 kt
Probabilité 30%
du 27 à 02 UTC au 27 à 06 UTC
Visibilité: 0500 m
à une hauteur de 100 ft
brouillard

TAF: ENGM 2606/2706 24005KT CAVOK TEMPO 2612/2619 33010G20KT PROB30 2702/2706 0500 FG VV001

Observations et prévisions météorologiques de plus de 4000 aéroports (messages METAR et TAF).

Les stations disponibles sont représentées par des disques jaunes et rouges sur la carte.

Passer la souris dessus pour voir le nom de la station.

Cliquer dessus pour voir les observations et prévisions météorologiques.

Pour changer de carte: cliquez sur les boutons verts avec une croix noire pour zoomer, sur le bouton vert avec un tiret pour effectuer un zoom arrière, ou sur les flèches vertes pour les cartes adjacentes.


METAR-TAF: